Time,TemperatureC,DewpointC,PressurehPa,WindDirection,WindDirectionDegrees,WindSpeedKMH,WindSpeedGustKMH,Humidity,HourlyPrecipMM,Conditions,Clouds,dailyrainMM,SolarRadiationWatts/m^2,UVIndex,SoftwareType,DateUTC
2026-05-08 00:04:55,18.1,13.2,1005.4,ESE,103,4.7,11.3,73,0.0,,,0.0,0,0,n/a,2026-05-07T12:04:55Z
2026-05-08 00:09:56,18.2,13.2,1005.4,East,80,4.4,11.3,73,0.0,,,0.0,0,0,n/a,2026-05-07T12:09:56Z
2026-05-08 00:14:55,18.3,13.3,1005.5,WNW,290,1.1,5.6,72.7,0.0,,,0.0,0,0,n/a,2026-05-07T12:14:55Z
2026-05-08 00:19:59,18.2,13.1,1005.5,South,187,1.6,6.4,72,0.0,,,0.0,0,0,n/a,2026-05-07T12:19:59Z
2026-05-08 00:24:59,18,13.1,1005.3,ESE,119,2.3,5.6,73.1,0.0,,,0.0,0,0,n/a,2026-05-07T12:24:59Z
2026-05-08 00:29:55,17.8,13,1005.4,East,85,2.5,5.6,73.9,0.0,,,0.0,0,0,n/a,2026-05-07T12:29:55Z
2026-05-08 00:34:57,17.8,13.1,1005.5,ENE,69,0,1.9,74,0.0,,,0.0,0,0,n/a,2026-05-07T12:34:57Z
2026-05-08 00:39:55,17.7,13,1005.4,East,89,1.4,5.6,74,0.0,,,0.0,0,0,n/a,2026-05-07T12:39:55Z
2026-05-08 00:44:59,17.3,12.7,1005.4,ESE,117,1.3,6.4,74.4,0.0,,,0.0,0,0,n/a,2026-05-07T12:44:59Z
2026-05-08 00:49:57,17.1,12.8,1005.2,SSE,160,1.7,8,75.8,0.0,,,0.0,0,0,n/a,2026-05-07T12:49:57Z
2026-05-08 00:54:57,17.3,13.1,1005.2,NW,323,4.9,13,76.5,0.0,,,0.0,0,0,n/a,2026-05-07T12:54:57Z
2026-05-08 00:59:56,18.3,13.5,1005.2,NW,311,7.9,13,73.7,0.0,,,0.0,0,0,n/a,2026-05-07T12:59:56Z
2026-05-08 01:04:54,19.2,13.6,1005.3,NW,312,9.3,16.1,69.7,0.0,,,0.0,0,0,n/a,2026-05-07T13:04:54Z
2026-05-08 01:09:59,19.8,13.6,1005.3,NW,307,9.1,16.7,67.4,0.0,,,0.0,0,0,n/a,2026-05-07T13:09:59Z
2026-05-08 01:14:58,20.1,13.6,1005.3,NW,311,8.5,14.8,66.2,0.0,,,0.0,0,0,n/a,2026-05-07T13:14:58Z
2026-05-08 01:19:57,20.2,13.5,1005.2,NW,310,7.5,14.8,65.4,0.0,,,0.0,0,0,n/a,2026-05-07T13:19:57Z
2026-05-08 01:24:58,20.1,13.5,1005.4,NW,317,6,13,65.9,0.0,,,0.0,0,0,n/a,2026-05-07T13:24:58Z
2026-05-08 01:29:56,20.1,13.5,1005.3,NW,310,6.5,13,66,0.0,,,0.0,0,0,n/a,2026-05-07T13:29:56Z
2026-05-08 01:34:54,20.1,13.5,1005.4,NW,305,6.7,13,66,0.0,,,0.0,0,0,n/a,2026-05-07T13:34:54Z
2026-05-08 01:39:55,20.1,13.5,1005.2,NW,305,6.5,13,66,0.0,,,0.0,0,0,n/a,2026-05-07T13:39:55Z
2026-05-08 01:44:59,20.1,13.5,1005.2,WNW,303,5.1,12.9,65.6,0.0,,,0.0,0,0,n/a,2026-05-07T13:44:59Z
2026-05-08 01:49:57,20.2,13.4,1005.2,NW,310,4.9,13,65,0.0,,,0.0,0,0,n/a,2026-05-07T13:49:57Z
2026-05-08 01:54:55,20.3,13.5,1005.1,WNW,287,4.7,11.3,65,0.0,,,0.0,0,0,n/a,2026-05-07T13:54:55Z
2026-05-08 01:59:57,20.3,13.5,1005.0,WNW,296,5.7,13,65,0.0,,,0.0,0,0,n/a,2026-05-07T13:59:57Z
2026-05-08 02:04:57,20.4,13.6,1004.9,NW,308,7.1,14.8,65,0.0,,,0.0,0,0,n/a,2026-05-07T14:04:57Z
2026-05-08 02:09:56,20.4,13.6,1004.9,WNW,303,8.4,16.7,65,0.0,,,0.0,0,0,n/a,2026-05-07T14:09:56Z
2026-05-08 02:14:57,20.4,13.7,1004.9,NW,309,7.7,14.8,65,0.0,,,0.0,0,0,n/a,2026-05-07T14:14:57Z
2026-05-08 02:19:56,20.5,13.7,1004.9,NW,318,8.3,14.8,65,0.0,,,0.0,0,0,n/a,2026-05-07T14:19:56Z
2026-05-08 02:24:54,20.6,13.8,1004.9,NW,317,6.5,13,65,0.0,,,0.0,0,0,n/a,2026-05-07T14:24:54Z
2026-05-08 02:29:54,20.8,13.7,1004.9,NW,309,8.8,24.1,64,0.0,,,0.0,0,0,n/a,2026-05-07T14:29:54Z
2026-05-08 02:34:54,20.9,13.8,1005.1,NW,304,7.1,13,64,0.0,,,0.0,0,0,n/a,2026-05-07T14:34:54Z
2026-05-08 02:39:57,20.9,13.8,1005.1,NW,316,4.5,11.1,64.2,0.0,,,0.0,0,0,n/a,2026-05-07T14:39:57Z
2026-05-08 02:44:55,20.8,13.9,1005.1,NW,317,3.6,8,64.9,0.0,,,0.0,0,0,n/a,2026-05-07T14:44:55Z
2026-05-08 02:49:55,20.7,13.9,1005.0,NW,304,3.4,6.4,65,0.0,,,0.0,0,0,n/a,2026-05-07T14:49:55Z
2026-05-08 02:54:56,20.6,13.8,1005.0,NW,317,4.9,13,65,0.0,,,0.0,0,0,n/a,2026-05-07T14:54:56Z
2026-05-08 02:59:54,20.5,13.8,1004.9,NW,321,1.7,5.6,65.2,0.0,,,0.0,0,0,n/a,2026-05-07T14:59:54Z
2026-05-08 03:04:57,20.5,13.9,1004.9,NW,322,0,1.9,66,0.0,,,0.0,0,0,n/a,2026-05-07T15:04:57Z
2026-05-08 03:09:54,20.3,13.8,1004.9,NW,322,0,1.9,66,0.0,,,0.0,0,0,n/a,2026-05-07T15:09:54Z
2026-05-08 03:14:55,20.1,13.7,1004.8,NW,322,0.2,1.9,66.3,0.0,,,0.0,0,0,n/a,2026-05-07T15:14:55Z
2026-05-08 03:19:58,19.8,13.6,1004.6,NW,322,0,1.9,67.6,0.0,,,0.0,0,0,n/a,2026-05-07T15:19:58Z
2026-05-08 03:24:56,19.5,13.5,1004.5,NW,320,0.5,3.2,68.5,0.0,,,0.0,0,0,n/a,2026-05-07T15:24:56Z
2026-05-08 03:29:56,19.3,13.6,1004.4,NW,320,1.5,3.7,69.4,0.0,,,0.0,0,0,n/a,2026-05-07T15:29:56Z
2026-05-08 03:34:59,19.2,13.6,1004.3,NW,320,0.9,3.7,70,0.0,,,0.0,0,0,n/a,2026-05-07T15:34:59Z
2026-05-08 03:39:57,19.2,13.6,1004.2,NW,320,0.1,1.9,70.2,0.0,,,0.0,0,0,n/a,2026-05-07T15:39:57Z
2026-05-08 03:44:58,19,13.6,1004.2,NNW,336,1.1,6.4,70.9,0.0,,,0.0,0,0,n/a,2026-05-07T15:44:58Z
2026-05-08 03:49:55,19,13.8,1004.1,NNW,335,2.4,5.6,71.9,0.0,,,0.0,0,0,n/a,2026-05-07T15:49:55Z
2026-05-08 03:54:56,19,13.8,1003.9,NNE,19,2.9,8,72,0.0,,,0.0,0,0,n/a,2026-05-07T15:54:56Z
2026-05-08 03:59:54,19,13.9,1003.9,NNE,25,2.1,6.4,72.3,0.0,,,0.0,0,0,n/a,2026-05-07T15:59:54Z
2026-05-08 04:04:54,18.9,13.9,1003.9,NNE,21,1.8,5.6,73,0.0,,,0.0,0,0,n/a,2026-05-07T16:04:54Z
2026-05-08 04:09:54,18.7,13.8,1003.8,NE,34,1.5,5.6,73,0.0,,,0.0,0,0,n/a,2026-05-07T16:09:54Z
2026-05-08 04:14:57,18.6,13.9,1003.9,NE,35,1.7,5.6,74,0.0,,,0.0,0,0,n/a,2026-05-07T16:14:57Z
2026-05-08 04:19:57,18.5,13.8,1004.0,North,351,1.5,5.6,74.2,0.0,,,0.0,0,0,n/a,2026-05-07T16:19:57Z
2026-05-08 04:24:59,18.4,13.9,1003.8,ENE,61,1.4,6.4,75,0.0,,,0.0,0,0,n/a,2026-05-07T16:24:59Z
2026-05-08 04:29:56,18.3,14,1003.6,NE,34,2.5,6.4,76,0.0,,,0.0,0,0,n/a,2026-05-07T16:29:56Z
2026-05-08 04:34:57,18.1,14,1003.8,NNW,343,1.6,3.7,76.6,0.0,,,0.0,0,0,n/a,2026-05-07T16:34:57Z
2026-05-08 04:39:56,18,13.9,1003.8,NNW,336,1.1,3.7,77,0.0,,,0.0,0,0,n/a,2026-05-07T16:39:56Z
2026-05-08 04:44:58,17.9,13.8,1003.8,NNW,339,0.8,3.7,77,0.0,,,0.0,0,0,n/a,2026-05-07T16:44:58Z
2026-05-08 04:49:54,17.7,13.7,1003.7,NNE,16,0.2,3.7,77.2,0.0,,,0.0,0,0,n/a,2026-05-07T16:49:54Z
2026-05-08 04:54:58,17.6,13.7,1003.7,ENE,60,2.3,6.4,78,0.0,,,0.0,0,0,n/a,2026-05-07T16:54:58Z
2026-05-08 04:59:59,17.3,13.5,1003.7,ENE,72,2.8,6.4,78.2,0.0,,,0.0,0,0,n/a,2026-05-07T16:59:59Z
2026-05-08 05:04:56,17.2,13.5,1003.8,ENE,66,2,5.6,79,0.0,,,0.0,0,0,n/a,2026-05-07T17:04:56Z
2026-05-08 05:09:59,17,13.3,1003.7,ENE,64,1.9,4.8,79,0.0,,,0.0,0,0,n/a,2026-05-07T17:09:59Z
2026-05-08 05:14:54,16.9,13.3,1003.7,ENE,69,2.2,5.6,79.8,0.0,,,0.0,0,0,n/a,2026-05-07T17:14:54Z
2026-05-08 05:19:57,16.8,13.3,1003.7,ENE,60,1.2,3.7,80,0.0,,,0.0,0,0,n/a,2026-05-07T17:19:57Z
2026-05-08 05:24:59,16.8,13.3,1003.6,ENE,58,1.6,3.7,80,0.0,,,0.0,0,0,n/a,2026-05-07T17:24:59Z
2026-05-08 05:29:54,16.8,13.3,1003.6,North,352,1.5,3.7,80,0.0,,,0.0,0,0,n/a,2026-05-07T17:29:54Z
2026-05-08 05:34:56,16.8,13.3,1003.5,NNW,343,1.8,6.4,80,0.0,,,0.0,0,0,n/a,2026-05-07T17:34:56Z
2026-05-08 05:39:54,16.8,13.3,1003.4,North,0,2,5.6,80,0.0,,,0.0,0,0,n/a,2026-05-07T17:39:54Z
2026-05-08 05:44:56,16.9,13.4,1003.4,North,350,0.9,5.6,80,0.0,,,0.0,0,0,n/a,2026-05-07T17:44:56Z
2026-05-08 05:49:57,16.9,13.3,1003.4,NE,39,0.9,3.7,79.4,0.0,,,0.0,0,0,n/a,2026-05-07T17:49:57Z
2026-05-08 05:54:58,16.9,13.2,1003.4,NE,49,1.2,3.7,79,0.0,,,0.0,0,0,n/a,2026-05-07T17:54:58Z
2026-05-08 05:59:55,16.8,13.2,1003.3,NNW,328,0.9,3.7,79,0.0,,,0.0,0,0,n/a,2026-05-07T17:59:55Z
2026-05-08 06:04:57,16.8,13.2,1003.2,NNW,327,0.9,4.8,79,0.0,,,0.0,0,0,n/a,2026-05-07T18:04:57Z
2026-05-08 06:09:55,16.9,13.2,1003.1,NNE,17,1.2,5.6,79,0.0,,,0.0,0,0,n/a,2026-05-07T18:09:55Z
2026-05-08 06:14:55,16.9,13.3,1003.0,NE,55,0.8,3.7,79,0.0,,,0.0,0,0,n/a,2026-05-07T18:14:55Z
2026-05-08 06:19:58,17,13.3,1003.1,NNW,331,1.6,6.4,79,0.0,,,0.0,0,0,n/a,2026-05-07T18:19:58Z
2026-05-08 06:24:54,17.1,13.4,1003.1,NNW,344,0.9,5.6,78.6,0.0,,,0.0,0,0,n/a,2026-05-07T18:24:54Z
2026-05-08 06:29:56,17.2,13.3,1003.0,NNW,342,3,6.4,78,0.0,,,0.0,0,0,n/a,2026-05-07T18:29:56Z
2026-05-08 06:34:57,17.3,13.5,1003.0,NNW,334,3.2,9.7,78,0.0,,,0.0,0,0,n/a,2026-05-07T18:34:57Z
2026-05-08 06:39:55,17.5,13.4,1003.0,NNW,347,2.6,8,77.2,0.0,,,0.0,0,0,n/a,2026-05-07T18:39:55Z
2026-05-08 06:44:58,17.5,13.5,1003.0,NW,323,3.9,11.3,77,0.0,,,0.0,0,0,n/a,2026-05-07T18:44:58Z
2026-05-08 06:49:54,17.7,13.5,1002.9,NNW,336,2.7,6.4,76.4,0.0,,,0.0,0,0,n/a,2026-05-07T18:49:54Z
2026-05-08 06:54:59,17.8,13.5,1002.8,North,350,1.8,4.8,76,0.0,,,0.0,0,0,n/a,2026-05-07T18:54:59Z
2026-05-08 06:59:56,17.9,13.6,1002.7,North,354,1.6,5.6,76,0.0,,,0.0,0,0,n/a,2026-05-07T18:59:56Z
2026-05-08 07:04:59,17.8,13.6,1002.5,North,9,0.6,1.9,76,0.0,,,0.0,0,0,n/a,2026-05-07T19:04:59Z
2026-05-08 07:09:56,17.7,13.5,1002.6,NNE,13,0,0,76,0.0,,,0.0,0,0,n/a,2026-05-07T19:09:56Z
2026-05-08 07:14:59,17.6,13.3,1002.6,NNE,13,0,0,76,0.0,,,0.0,0,0,n/a,2026-05-07T19:14:59Z
2026-05-08 07:19:55,17.4,13.2,1002.6,NNE,13,0,0,76.2,0.0,,,0.0,0,0,n/a,2026-05-07T19:19:55Z
2026-05-08 07:24:57,17.2,13.2,1002.5,NNE,13,0,0,77,0.0,,,0.0,0,0,n/a,2026-05-07T19:24:57Z
2026-05-08 07:29:57,17,13,1002.6,ESE,111,1.6,6.4,77.3,0.0,,,0.0,0,0,n/a,2026-05-07T19:29:57Z
2026-05-08 07:34:59,16.7,13,1002.7,NNW,341,2.2,6.4,78.8,0.0,,,0.0,0,0,n/a,2026-05-07T19:34:59Z
2026-05-08 07:39:56,16.8,13.2,1002.6,ENE,70,3.2,11.3,79.4,0.0,,,0.0,7,0,n/a,2026-05-07T19:39:56Z
2026-05-08 07:44:58,16.9,13.2,1002.6,NNW,338,2.4,5.6,79,0.0,,,0.0,12,0,n/a,2026-05-07T19:44:58Z
2026-05-08 07:49:55,16.9,13.3,1002.6,NE,50,1.6,6.4,79,0.0,,,0.0,14,0,n/a,2026-05-07T19:49:55Z
2026-05-08 07:54:56,16.9,13.3,1002.6,NNE,22,2.8,5.6,79,0.0,,,0.0,18,0,n/a,2026-05-07T19:54:56Z
2026-05-08 07:59:57,16.9,13.3,1002.6,East,85,3.2,5.6,79,0.0,,,0.0,23,0,n/a,2026-05-07T19:59:57Z
2026-05-08 08:04:59,16.9,13.3,1002.7,NNE,14,4.1,9.7,79,0.0,,,0.0,28,0,n/a,2026-05-07T20:04:59Z
2026-05-08 08:09:56,16.9,13.3,1002.5,NE,51,1.9,9.3,79,0.0,,,0.0,32,0,n/a,2026-05-07T20:09:56Z
2026-05-08 08:14:59,16.9,13.3,1002.6,NNE,29,1.3,5.6,79,0.0,,,0.0,35,0,n/a,2026-05-07T20:14:59Z
2026-05-08 08:19:55,16.9,13.3,1002.5,ENE,61,2.3,5.6,79.5,0.0,,,0.0,37,0,n/a,2026-05-07T20:19:55Z
2026-05-08 08:24:55,16.8,13.3,1002.5,East,84,2.8,6.4,80,0.0,,,0.0,37,0,n/a,2026-05-07T20:24:55Z
2026-05-08 08:29:58,16.8,13.3,1002.4,ESE,105,2.9,5.6,80,0.0,,,0.0,37,0,n/a,2026-05-07T20:29:58Z
2026-05-08 08:34:58,16.7,13.3,1002.3,ESE,113,2.9,6.4,80.1,0.0,,,0.0,42,0,n/a,2026-05-07T20:34:58Z
2026-05-08 08:39:55,16.6,13.4,1002.3,SE,140,0.5,3.7,81,0.0,,,0.0,47,0,n/a,2026-05-07T20:39:55Z
2026-05-08 08:44:57,16.6,13.4,1002.4,SSE,157,0.6,3.7,81,0.0,,,0.0,54,0,n/a,2026-05-07T20:44:57Z
2026-05-08 08:49:54,16.6,13.3,1002.3,SSE,159,0.2,1.9,81,0.0,,,0.0,69,0,n/a,2026-05-07T20:49:54Z
2026-05-08 08:54:55,16.6,13.3,1002.2,SSE,158,1.6,6.4,81.4,0.0,,,0.0,76,0,n/a,2026-05-07T20:54:55Z
2026-05-08 08:59:59,16.6,13.5,1002.0,SE,125,2.9,6.4,81.7,0.0,,,0.0,102,0,n/a,2026-05-07T20:59:59Z
2026-05-08 09:04:55,16.8,13.6,1002.0,SE,137,3.8,6.4,81.3,0.0,,,0.0,125,0,n/a,2026-05-07T21:04:55Z
2026-05-08 09:09:54,16.7,13.6,1001.9,SE,130,5.5,11.3,82,0.0,,,0.0,84,0,n/a,2026-05-07T21:09:54Z
2026-05-08 09:14:56,16.6,13.7,1002.0,SE,126,3.4,9.7,82.9,0.0,,,0.0,84,0,n/a,2026-05-07T21:14:56Z
2026-05-08 09:19:55,16.5,13.6,1002.0,ESE,122,3,6.4,83,0.0,,,0.0,83,0,n/a,2026-05-07T21:19:55Z
2026-05-08 09:24:58,16.5,13.6,1001.9,ESE,121,3.5,5.6,83.2,0.0,,,0.0,84,0,n/a,2026-05-07T21:24:58Z
2026-05-08 09:29:55,16.5,13.8,1001.8,ESE,111,4.3,9.7,84,0.0,,,0.0,88,0,n/a,2026-05-07T21:29:55Z
2026-05-08 09:34:59,16.6,13.8,1001.8,ESE,105,5.6,11.3,83.7,0.0,,,0.0,100,0,n/a,2026-05-07T21:34:59Z
2026-05-08 09:39:57,16.7,13.8,1001.7,ESE,113,4.8,6.4,83,0.0,,,0.0,134,0.5,n/a,2026-05-07T21:39:57Z
2026-05-08 09:44:59,16.8,13.9,1001.6,ESE,114,4.8,8,83,0.0,,,0.0,135,0.6,n/a,2026-05-07T21:44:59Z
2026-05-08 09:49:55,16.9,13.9,1001.6,ESE,106,4.7,8,82.4,0.0,,,0.0,132,0.6,n/a,2026-05-07T21:49:55Z
2026-05-08 09:54:58,17,13.9,1001.6,East,80,5,9.7,82,0.0,,,0.0,146,0.7,n/a,2026-05-07T21:54:58Z
2026-05-08 09:59:55,17.1,13.9,1001.6,East,94,6.3,11.3,81.6,0.0,,,0.0,193,0.7,n/a,2026-05-07T21:59:55Z
2026-05-08 10:04:59,17.2,14,1001.7,East,90,5.2,11.3,81.6,0.0,,,0.0,193,0.7,n/a,2026-05-07T22:04:59Z
2026-05-08 10:09:59,17.1,14,1001.7,East,94,6.1,14.5,82,0.0,,,0.0,142,0.7,n/a,2026-05-07T22:09:59Z
2026-05-08 10:14:57,16.9,14,1001.6,ESE,107,5.8,14.8,83,0.0,,,0.0,113,0.5,n/a,2026-05-07T22:14:57Z
2026-05-08 10:19:58,16.8,13.9,1001.4,ENE,71,3.4,6.4,83,0.0,,,0.0,100,0.5,n/a,2026-05-07T22:19:58Z
2026-05-08 10:24:55,16.9,14,1001.3,ENE,76,3,11.3,83,0.0,,,0.0,111,0.6,n/a,2026-05-07T22:24:55Z
2026-05-08 10:29:59,17,14.1,1001.0,East,84,3.5,11.1,83,0.0,,,0.0,118,0.5,n/a,2026-05-07T22:29:59Z
2026-05-08 10:34:56,17.2,14.1,1001.0,East,84,3.6,6.4,82.1,0.0,,,0.0,121,0.5,n/a,2026-05-07T22:34:56Z
2026-05-08 10:39:55,17.3,14.2,1000.9,East,98,3.7,6.4,82,0.0,,,0.0,158,0.7,n/a,2026-05-07T22:39:55Z
2026-05-08 10:44:58,17.6,14.4,1000.8,ESE,115,4.9,8,81.6,0.0,,,0.0,195,1.1,n/a,2026-05-07T22:44:58Z
2026-05-08 10:49:58,18,14.8,1000.2,SE,134,4.2,8,82,0.0,,,0.0,455,1.4,n/a,2026-05-07T22:49:58Z